Time;durP1;ratioP1;P1;durP2;ratioP2;P2;SDS_P1;SDS_P2;PMS_P1;PMS_P2;Temp;Humidity;BMP_temperature;BMP_pressure;BME280_temperature;BME280_humidity;BME280_pressure;Samples;Min_cycle;Max_cycle;Signal;HPM_P1;HPM_P2
2023/10/09 00:03:00;;;;;;;30.75;15.05;;;;;;;13.12;100.00;101954.53;5050915;28;20036;-68
2023/10/09 00:08:34;;;;;;;30.52;15.82;;;;;;;13.19;100.00;101944.06;5030077;28;20080;-68
2023/10/09 00:11:13;;;;;;;32.65;16.35;;;;;;;13.23;100.00;101935.59;5030855;28;20485;-68
2023/10/09 00:13:48;;;;;;;25.77;15.77;;;;;;;13.25;100.00;101938.25;5033659;28;20112;-68
2023/10/09 00:16:23;;;;;;;35.00;17.40;;;;;;;13.30;100.00;101927.91;5043063;28;20044;-68
2023/10/09 00:18:49;;;;;;;32.10;17.77;;;;;;;13.38;100.00;101938.28;5050584;28;20122;-68
2023/10/09 00:21:23;;;;;;;30.52;17.33;;;;;;;13.39;100.00;101938.22;5040604;28;20121;-68
2023/10/09 00:23:53;;;;;;;32.50;18.05;;;;;;;13.46;100.00;101941.41;5029139;28;20034;-69
2023/10/09 00:26:22;;;;;;;35.65;16.58;;;;;;;13.48;100.00;101937.59;5030441;28;20037;-67
2023/10/09 00:28:51;;;;;;;37.05;17.55;;;;;;;13.51;100.00;101915.50;5030217;28;20408;-68
2023/10/09 00:31:26;;;;;;;33.13;17.25;;;;;;;13.55;100.00;101913.44;5029089;28;20112;-68
2023/10/09 00:33:52;;;;;;;31.67;16.23;;;;;;;13.55;100.00;101921.66;5030465;28;20540;-68
2023/10/09 00:36:27;;;;;;;32.72;16.60;;;;;;;13.59;100.00;101914.13;5028967;28;20045;-69
2023/10/09 00:38:52;;;;;;;35.50;17.60;;;;;;;13.65;100.00;101910.94;5033155;28;20038;-68
2023/10/09 00:41:22;;;;;;;34.42;16.67;;;;;;;13.71;100.00;101907.81;5030278;28;20041;-69
2023/10/09 00:43:49;;;;;;;36.63;16.63;;;;;;;13.75;100.00;101903.88;5028704;28;20045;-69
2023/10/09 00:48:49;;;;;;;34.92;17.13;;;;;;;13.85;100.00;101899.53;5028720;28;20036;-69
2023/10/09 00:51:18;;;;;;;35.53;16.15;;;;;;;13.87;100.00;101916.72;5030091;28;20039;-68
2023/10/09 00:53:50;;;;;;;34.45;16.80;;;;;;;13.88;100.00;101918.44;5029789;28;20382;-69
2023/10/09 00:57:06;;;;;;;29.13;17.53;;;;;;;13.91;100.00;101920.13;5044936;28;20044;-68
2023/10/09 00:59:19;;;;;;;26.27;15.25;;;;;;;13.90;100.00;101921.97;5029361;28;20454;-68
2023/10/09 01:01:54;;;;;;;29.30;15.68;;;;;;;13.92;100.00;101917.25;5029621;28;20037;-68
2023/10/09 01:04:22;;;;;;;27.38;16.13;;;;;;;13.94;100.00;101908.94;5029657;28;20554;-68
2023/10/09 01:06:53;;;;;;;30.30;14.98;;;;;;;13.97;100.00;101911.47;5029762;28;20458;-67
2023/10/09 01:09:21;;;;;;;30.55;15.30;;;;;;;14.01;100.00;101913.00;5044363;28;20040;-69
2023/10/09 01:12:03;;;;;;;33.05;16.67;;;;;;;14.02;100.00;101909.28;5047445;28;20488;-68
2023/10/09 01:14:31;;;;;;;31.08;15.68;;;;;;;14.01;100.00;101913.88;5048185;28;20029;-68
2023/10/09 01:16:57;;;;;;;28.80;15.45;;;;;;;14.02;100.00;101912.91;5040820;28;20055;-67
2023/10/09 01:19:27;;;;;;;27.75;15.85;;;;;;;14.04;100.00;101915.53;5047973;28;20036;-67
2023/10/09 01:21:54;;;;;;;30.02;15.73;;;;;;;14.06;100.00;101910.81;5036770;28;20489;-68
2023/10/09 01:24:20;;;;;;;28.20;15.43;;;;;;;14.04;100.00;101897.25;5027316;28;20477;-69
2023/10/09 01:26:47;;;;;;;29.92;15.50;;;;;;;14.09;100.00;101915.22;5029082;28;20034;-69
2023/10/09 01:29:21;;;;;;;29.02;15.88;;;;;;;14.10;100.00;101906.91;5011279;28;20136;-68
2023/10/09 01:31:56;;;;;;;30.42;15.35;;;;;;;14.09;100.00;101916.09;5046453;28;20397;-67
2023/10/09 01:34:24;;;;;;;30.52;16.00;;;;;;;14.10;100.00;101922.44;5047327;28;20037;-68
2023/10/09 01:36:54;;;;;;;28.65;15.68;;;;;;;14.09;100.00;101921.56;5048916;28;20030;-69
2023/10/09 01:39:30;;;;;;;29.60;15.43;;;;;;;14.07;100.00;101915.31;5037993;28;20124;-69
2023/10/09 01:42:00;;;;;;;28.05;15.48;;;;;;;14.07;100.00;101918.03;5027921;28;20087;-68
2023/10/09 01:44:28;;;;;;;29.60;15.50;;;;;;;14.06;100.00;101910.81;5029172;28;20397;-69
2023/10/09 01:46:57;;;;;;;28.65;15.02;;;;;;;14.07;100.00;101900.75;5029072;28;20045;-68
2023/10/09 01:49:31;;;;;;;26.13;15.25;;;;;;;14.10;100.00;101906.91;5029177;28;20057;-68
2023/10/09 01:52:03;;;;;;;26.05;15.18;;;;;;;14.11;100.00;101910.50;5027927;28;20095;-68
2023/10/09 01:54:36;;;;;;;30.55;15.10;;;;;;;14.09;100.00;101905.16;5028440;28;20041;-69
2023/10/09 01:57:10;;;;;;;30.35;16.42;;;;;;;14.07;100.00;101908.97;5028880;28;20060;-69
2023/10/09 01:59:43;;;;;;;31.67;16.00;;;;;;;14.06;100.00;101902.63;5011827;28;20135;-68
2023/10/09 02:02:25;;;;;;;27.75;15.20;;;;;;;14.06;100.00;101905.34;5045702;28;20484;-69
2023/10/09 02:05:03;;;;;;;27.17;16.45;;;;;;;14.06;100.00;101897.16;5031132;28;20043;-69
2023/10/09 02:07:40;;;;;;;28.70;16.30;;;;;;;14.06;100.00;101901.75;5044354;28;20033;-68
2023/10/09 02:10:21;;;;;;;29.35;15.13;;;;;;;14.03;100.00;101906.47;5028303;28;20129;-68
2023/10/09 02:12:57;;;;;;;31.23;16.77;;;;;;;14.04;100.00;101901.88;5033028;28;20037;-68
2023/10/09 02:15:51;;;;;;;33.15;16.25;;;;;;;14.06;100.00;101899.88;5043332;28;20561;-68
2023/10/09 02:23:49;;;;;;;27.67;15.63;;;;;;;14.07;100.00;101885.22;5028808;28;20034;-70
2023/10/09 02:26:26;;;;;;;30.98;16.00;;;;;;;14.09;100.00;101890.59;5028879;28;20034;-67
2023/10/09 02:28:58;;;;;;;26.58;15.90;;;;;;;14.09;100.00;101891.47;5028290;28;20068;-70
2023/10/09 02:31:40;;;;;;;27.70;16.63;;;;;;;14.09;100.00;101882.38;5043587;28;20088;-68
2023/10/09 02:34:10;;;;;;;32.08;15.57;;;;;;;14.11;100.00;101878.53;5029170;28;20033;-67
2023/10/09 02:36:42;;;;;;;28.45;16.85;;;;;;;14.11;100.00;101883.13;5032456;28;20044;-68
2023/10/09 02:39:22;;;;;;;26.33;15.82;;;;;;;14.09;100.00;101880.53;5039746;28;20043;-68
2023/10/09 02:41:55;;;;;;;27.90;16.23;;;;;;;14.09;100.00;101869.56;5052341;28;20072;-68
2023/10/09 02:44:24;;;;;;;28.52;15.18;;;;;;;14.09;100.00;101863.22;5051431;28;20041;-69
2023/10/09 02:46:50;;;;;;;28.05;16.55;;;;;;;14.09;100.00;101853.16;5046056;28;20028;-68
2023/10/09 02:49:16;;;;;;;30.08;16.90;;;;;;;14.09;100.00;101852.28;5050957;28;20087;-69
2023/10/09 02:51:42;;;;;;;26.60;15.60;;;;;;;14.08;100.00;101861.44;5052311;28;20033;-68
2023/10/09 02:54:18;;;;;;;27.63;15.70;;;;;;;14.09;100.00;101874.19;5048053;28;20452;-68
2023/10/09 02:56:54;;;;;;;31.70;16.20;;;;;;;14.09;100.00;101863.22;5030596;28;20033;-69
2023/10/09 02:59:21;;;;;;;28.88;16.40;;;;;;;14.10;100.00;101867.72;5031701;28;20045;-68
2023/10/09 03:01:48;;;;;;;30.98;16.40;;;;;;;14.11;100.00;101878.53;5032148;28;20040;-68
2023/10/09 03:04:15;;;;;;;29.80;16.30;;;;;;;14.12;100.00;101871.19;5030430;28;20075;-69
2023/10/09 03:06:49;;;;;;;30.05;15.60;;;;;;;14.12;100.00;101872.06;5031903;28;20494;-68
2023/10/09 03:09:17;;;;;;;28.45;17.08;;;;;;;14.09;100.00;101866.84;5030663;28;20120;-69
2023/10/09 03:11:48;;;;;;;24.17;15.35;;;;;;;14.11;100.00;101863.97;5046101;28;20029;-68
2023/10/09 03:14:13;;;;;;;29.80;16.40;;;;;;;14.11;100.00;101863.97;5050252;28;20120;-68
2023/10/09 03:16:39;;;;;;;29.58;17.65;;;;;;;14.10;100.00;101845.81;5037145;28;20521;-70
2023/10/09 03:19:04;;;;;;;25.75;15.60;;;;;;;14.12;100.00;101847.44;5031642;28;20033;-69
2023/10/09 03:21:30;;;;;;;27.30;15.38;;;;;;;14.12;100.00;101839.22;5030287;28;20128;-68
2023/10/09 03:23:56;;;;;;;30.50;16.10;;;;;;;14.12;100.00;101843.84;5031729;28;20436;-69
2023/10/09 03:26:25;;;;;;;27.00;16.08;;;;;;;14.14;100.00;101841.88;5031564;28;20532;-68
2023/10/09 03:28:54;;;;;;;29.45;15.80;;;;;;;14.12;100.00;101841.97;5029748;28;20033;-68
2023/10/09 03:31:22;;;;;;;30.70;17.35;;;;;;;14.11;100.00;101834.75;5040961;28;20065;-67
2023/10/09 03:33:47;;;;;;;27.00;16.23;;;;;;;14.10;100.00;101837.63;5032461;28;20453;-69
2023/10/09 03:36:13;;;;;;;29.90;16.17;;;;;;;14.09;100.00;101831.25;5031461;28;20091;-68
2023/10/09 03:38:40;;;;;;;28.48;16.92;;;;;;;14.09;100.00;101838.59;5031176;28;20078;-68
2023/10/09 03:41:06;;;;;;;30.13;16.25;;;;;;;14.09;100.00;101824.91;5031671;28;20044;-67
2023/10/09 03:43:41;;;;;;;23.85;15.80;;;;;;;14.08;100.00;101820.41;5031103;28;20026;-68
2023/10/09 03:46:32;;;;;;;29.90;16.77;;;;;;;14.07;100.00;101824.13;5041089;28;20069;-68
2023/10/09 03:49:00;;;;;;;28.38;16.13;;;;;;;14.06;100.00;101830.59;5031140;28;20048;-68
2023/10/09 03:51:27;;;;;;;26.48;15.85;;;;;;;14.07;100.00;101819.53;5031182;28;20381;-69
2023/10/09 03:53:55;;;;;;;27.52;15.48;;;;;;;14.07;100.00;101832.34;5030921;28;20108;-67
2023/10/09 03:56:23;;;;;;;28.15;16.63;;;;;;;14.07;100.00;101826.88;5031098;28;20485;-68
2023/10/09 03:58:50;;;;;;;31.88;17.50;;;;;;;14.06;100.00;101831.47;5030784;28;20045;-68
2023/10/09 04:01:29;;;;;;;30.20;16.35;;;;;;;14.04;100.00;101825.25;5030669;28;20044;-68
2023/10/09 04:03:59;;;;;;;24.98;15.80;;;;;;;14.06;100.00;101831.47;5030821;28;20037;-68
2023/10/09 04:06:30;;;;;;;26.40;14.80;;;;;;;14.08;100.00;101836.81;5030867;28;20041;-68
2023/10/09 04:08:58;;;;;;;28.85;15.60;;;;;;;14.08;100.00;101836.81;5031021;28;20037;-67
2023/10/09 04:11:24;;;;;;;23.77;14.75;;;;;;;14.07;100.00;101826.88;5030771;28;20021;-68
2023/10/09 04:13:51;;;;;;;29.88;16.00;;;;;;;14.06;100.00;101830.59;5030669;28;20045;-68
2023/10/09 04:16:50;;;;;;;27.85;15.40;;;;;;;14.03;100.00;101816.16;5030587;28;20032;-68
2023/10/09 04:19:10;;;;;;;28.63;16.08;;;;;;;14.04;100.00;101809.69;5027837;28;20064;-68
2023/10/09 04:21:37;;;;;;;27.20;15.52;;;;;;;14.05;100.00;101799.63;5030892;28;20044;-69
2023/10/09 04:26:45;;;;;;;23.27;14.80;;;;;;;14.02;100.00;101808.91;5030406;28;20039;-67
2023/10/09 04:29:23;;;;;;;25.98;15.18;;;;;;;14.02;100.00;101813.53;5034926;28;20055;-68
2023/10/09 04:31:53;;;;;;;27.65;15.52;;;;;;;14.04;100.00;101815.19;5048907;28;20048;-69
2023/10/09 04:34:22;;;;;;;26.48;15.32;;;;;;;14.07;100.00;101829.59;5050202;28;20041;-68
2023/10/09 04:36:56;;;;;;;24.17;15.18;;;;;;;14.05;100.00;101837.94;5037282;28;20047;-67
2023/10/09 04:41:53;;;;;;;28.63;15.23;;;;;;;14.03;100.00;101848.09;5030112;28;20036;-68
2023/10/09 04:44:35;;;;;;;27.25;15.30;;;;;;;14.04;100.00;101845.28;5033345;28;20032;-68
2023/10/09 04:49:52;;;;;;;26.17;15.45;;;;;;;14.05;100.00;101848.88;5050491;28;20037;-69
2023/10/09 04:57:47;;;;;;;31.05;16.23;;;;;;;14.09;100.00;101841.34;5029394;28;20045;-68
2023/10/09 05:00:35;;;;;;;30.95;16.05;;;;;;;14.10;100.00;101841.22;5029961;28;20098;-68
2023/10/09 05:03:10;;;;;;;27.90;15.45;;;;;;;14.11;100.00;101842.97;5029699;28;20112;-69
2023/10/09 05:08:21;;;;;;;28.50;15.90;;;;;;;14.11;100.00;101847.56;5049786;28;20091;-68
2023/10/09 05:11:15;;;;;;;28.02;14.65;;;;;;;14.10;100.00;101841.22;5049674;28;20098;-68
2023/10/09 05:16:25;;;;;;;28.13;15.15;;;;;;;14.11;100.00;101842.09;5043642;28;20120;-68
2023/10/09 05:19:28;;;;;;;28.88;15.93;;;;;;;14.11;100.00;101839.34;5029234;28;20042;-68
2023/10/09 05:21:53;;;;;;;32.77;16.17;;;;;;;14.13;100.00;101851.06;5029340;28;20037;-68
2023/10/09 05:24:19;;;;;;;29.80;16.45;;;;;;;14.13;100.00;101854.69;5029474;28;20041;-67
2023/10/09 05:37:24;;;;;;;29.23;17.55;;;;;;;14.17;100.00;101875.34;5029004;28;20037;-69
2023/10/09 05:48:33;;;;;;;33.88;17.10;;;;;;;14.18;100.00;101874.41;5049211;28;20501;-68
2023/10/09 05:57:32;;;;;;;33.20;17.08;;;;;;;14.19;100.00;101878.88;5020489;28;20057;-69
2023/10/09 06:04:17;;;;;;;33.00;17.83;;;;;;;14.21;100.00;101908.88;5028939;28;20370;-67
2023/10/09 06:06:44;;;;;;;33.58;17.40;;;;;;;14.21;100.00;101904.25;5045766;28;20129;-71
2023/10/09 06:11:39;;;;;;;32.05;17.77;;;;;;;14.23;100.00;101895.97;5037811;28;20267;-68
2023/10/09 06:14:12;;;;;;;29.55;17.10;;;;;;;14.24;100.00;101904.06;5031596;28;20401;-68
2023/10/09 06:16:42;;;;;;;33.28;18.50;;;;;;;14.26;100.00;101895.72;5035597;28;20034;-67
2023/10/09 06:24:22;;;;;;;;;;;;;;;14.32;100.00;101894.44;5033127;28;20117;-68
2023/10/09 06:27:56;;;;;;;28.88;17.15;;;;;;;14.30;100.00;101878.97;5032958;28;19928;-68
2023/10/09 06:35:15;;;;;;;34.50;17.95;;;;;;;14.37;100.00;101904.06;5048432;28;20144;-69
2023/10/09 06:48:44;;;;;;;36.33;19.45;;;;;;;14.44;100.00;101899.88;5032143;28;20481;-70
2023/10/09 06:58:58;;;;;;;30.90;19.05;;;;;;;14.49;100.00;101875.81;5031029;28;20037;-67
2023/10/09 07:03:53;;;;;;;39.45;19.40;;;;;;;14.53;100.00;101863.66;5032007;28;20478;-68
2023/10/09 07:06:48;;;;;;;35.22;19.27;;;;;;;14.59;100.00;101866.94;5031890;28;20080;-68
2023/10/09 07:14:07;;;;;;;38.00;20.58;;;;;;;14.72;100.00;101843.13;5030678;28;20045;-69
2023/10/09 07:16:38;;;;;;;34.72;21.13;;;;;;;14.76;100.00;101837.31;5030839;28;20097;-69
2023/10/09 07:19:09;;;;;;;36.13;20.05;;;;;;;14.82;100.00;101843.31;5040110;28;20116;-69
2023/10/09 07:21:38;;;;;;;38.25;20.77;;;;;;;14.87;100.00;101836.50;5036919;28;20041;-69
2023/10/09 07:24:17;;;;;;;32.05;19.15;;;;;;;14.91;100.00;101843.50;5046968;28;20102;-68
2023/10/09 07:26:52;;;;;;;34.22;21.67;;;;;;;14.94;100.00;101867.09;5050134;28;20029;-69
2023/10/09 07:29:22;;;;;;;34.83;18.88;;;;;;;14.95;100.00;101888.88;5033498;28;20049;-68
2023/10/09 07:31:56;;;;;;;38.65;18.98;;;;;;;14.98;100.00;101907.84;5031078;28;20524;-68
2023/10/09 07:34:30;;;;;;;36.20;19.92;;;;;;;15.01;100.00;101904.00;5029564;28;20481;-68
2023/10/09 07:36:56;;;;;;;35.28;19.92;;;;;;;14.99;100.00;101917.81;5031002;28;20397;-68
2023/10/09 07:39:22;;;;;;;34.63;18.98;;;;;;;15.01;100.00;101929.56;5031046;28;20045;-68
2023/10/09 07:42:14;;;;;;;32.65;18.58;;;;;;;15.02;100.00;101933.16;5030671;28;20069;-70
2023/10/09 07:44:46;;;;;;;35.13;18.02;;;;;;;15.03;100.00;101933.03;5030918;28;20496;-69
2023/10/09 07:47:22;;;;;;;33.08;18.98;;;;;;;15.04;100.00;101926.56;5030298;28;20496;-68
2023/10/09 07:49:54;;;;;;;38.95;17.98;;;;;;;15.05;100.00;101924.69;5029462;28;20045;-68
2023/10/09 07:52:21;;;;;;;37.63;18.17;;;;;;;15.05;100.00;101909.13;5030572;28;20045;-69
2023/10/09 07:54:49;;;;;;;32.90;18.90;;;;;;;15.08;100.00;101916.25;5031172;28;20506;-69
2023/10/09 07:57:16;;;;;;;35.08;18.52;;;;;;;15.09;100.00;101901.56;5030890;28;20116;-68
2023/10/09 07:59:54;;;;;;;37.28;19.88;;;;;;;15.11;100.00;101898.69;5050959;28;20036;-67
2023/10/09 08:02:31;;;;;;;34.80;18.98;;;;;;;15.11;100.00;101891.38;5032198;28;20088;-68
2023/10/09 08:05:33;;;;;;;31.50;19.23;;;;;;;15.12;100.00;101884.91;5030833;28;20029;-68
2023/10/09 08:07:57;;;;;;;33.70;18.48;;;;;;;15.14;100.00;101912.19;5030322;28;20041;-68
2023/10/09 08:17:53;;;;;;;30.35;19.63;;;;;;;15.29;100.00;101913.75;5047165;28;20059;-69
2023/10/09 08:20:36;;;;;;;29.45;18.30;;;;;;;15.38;100.00;101920.44;5050526;28;20133;-67
2023/10/09 08:23:04;;;;;;;;;;;;;;;15.46;100.00;101907.00;5030830;28;20078;-69
2023/10/09 08:25:32;;;;;;;34.42;19.73;;;;;;;15.52;100.00;101903.78;5029780;28;19967;-68
2023/10/09 08:28:39;;;;;;;40.13;20.45;;;;;;;15.61;100.00;101903.09;5030146;28;20389;-68
2023/10/09 08:36:01;;;;;;;36.40;20.40;;;;;;;15.90;100.00;101880.78;5043611;28;20124;-68
2023/10/09 08:38:33;;;;;;;31.90;18.85;;;;;;;16.03;100.00;101867.84;5050053;28;20033;-68
2023/10/09 08:41:15;;;;;;;35.00;19.88;;;;;;;16.15;100.00;101883.34;5050116;28;20036;-67
2023/10/09 08:43:47;;;;;;;40.22;20.65;;;;;;;16.23;100.00;101875.38;5034212;28;20342;-69
2023/10/09 08:46:18;;;;;;;32.33;19.00;;;;;;;16.31;100.00;101885.72;5042580;28;20566;-68
2023/10/09 08:48:44;;;;;;;34.90;18.85;;;;;;;16.35;100.00;101879.00;5029862;28;20037;-68
2023/10/09 08:51:10;;;;;;;33.67;18.75;;;;;;;16.40;100.00;101876.75;5028786;28;20612;-69
2023/10/09 08:53:42;;;;;;;33.78;19.20;;;;;;;16.44;100.00;101874.66;5029950;28;20132;-69
2023/10/09 08:56:12;;;;;;;31.17;18.67;;;;;;;16.53;100.00;101872.03;5050148;28;20044;-68
2023/10/09 08:58:38;;;;;;;35.50;21.08;;;;;;;16.60;100.00;101877.91;5049732;28;20033;-67
2023/10/09 09:01:03;;;;;;;32.95;19.17;;;;;;;16.71;100.00;101866.91;5041807;28;20038;-68
2023/10/09 09:03:45;;;;;;;31.27;17.95;;;;;;;16.80;100.00;101881.81;5028375;28;20044;-68
2023/10/09 09:06:11;;;;;;;35.10;18.70;;;;;;;16.90;100.00;101884.66;5029684;28;20438;-68
2023/10/09 09:08:37;;;;;;;38.45;19.35;;;;;;;16.97;100.00;101889.53;5029703;28;20100;-68
2023/10/09 09:11:22;;;;;;;35.30;19.35;;;;;;;17.08;100.00;101914.25;5028193;28;20129;-68
2023/10/09 09:14:18;;;;;;;38.47;19.10;;;;;;;17.21;100.00;101921.50;5029246;28;20492;-68
2023/10/09 09:16:48;;;;;;;33.33;18.15;;;;;;;17.40;100.00;101920.84;5047569;28;20461;-69
2023/10/09 09:21:48;;;;;;;35.35;18.20;;;;;;;17.63;100.00;101932.66;5029320;28;20042;-69
2023/10/09 09:24:36;;;;;;;29.63;17.65;;;;;;;17.72;100.00;101940.09;5029298;28;20033;-69
2023/10/09 09:27:20;;;;;;;33.40;18.25;;;;;;;17.78;99.60;101932.22;5028841;28;20045;-68
2023/10/09 09:29:52;;;;;;;27.50;18.05;;;;;;;17.90;100.00;101938.53;5044477;28;20049;-68
2023/10/09 09:32:29;;;;;;;30.98;18.63;;;;;;;18.06;100.00;101935.34;5031084;28;20143;-68
2023/10/09 09:35:01;;;;;;;33.83;18.88;;;;;;;18.15;98.96;101945.56;5029247;28;20041;-67
2023/10/09 09:37:28;;;;;;;35.38;19.08;;;;;;;18.21;98.68;101946.91;5029075;28;20040;-68
2023/10/09 09:40:14;;;;;;;34.33;19.50;;;;;;;18.24;98.19;101947.53;5033634;28;20033;-68
2023/10/09 09:42:44;;;;;;;33.83;19.15;;;;;;;18.36;99.66;101953.84;5048887;28;20040;-68
2023/10/09 09:45:11;;;;;;;36.83;20.05;;;;;;;18.40;96.71;101959.97;5038176;28;20041;-69
2023/10/09 09:47:37;;;;;;;38.92;20.45;;;;;;;18.41;96.31;101956.19;5048480;28;20153;-68
2023/10/09 09:50:22;;;;;;;37.78;19.52;;;;;;;18.49;96.94;101956.38;5049003;28;20059;-69
2023/10/09 09:52:49;;;;;;;34.00;19.27;;;;;;;18.63;97.04;101960.69;5038913;28;20088;-67
2023/10/09 09:55:22;;;;;;;31.83;18.63;;;;;;;18.69;96.72;101963.78;5044376;28;20078;-67
2023/10/09 09:57:52;;;;;;;38.97;21.85;;;;;;;18.75;93.98;101963.25;5028777;28;20033;-69
2023/10/09 10:00:30;;;;;;;35.35;19.45;;;;;;;18.74;94.29;101957.88;5028744;28;20073;-68
2023/10/09 10:03:10;;;;;;;36.22;19.92;;;;;;;18.82;95.41;101964.44;5028787;28;20045;-69
2023/10/09 10:05:37;;;;;;;35.15;19.55;;;;;;;18.93;94.76;101962.59;5029361;28;20048;-68
2023/10/09 10:08:05;;;;;;;35.17;20.92;;;;;;;18.96;92.17;101962.34;5034944;28;20738;-68
2023/10/09 10:10:34;;;;;;;34.63;20.60;;;;;;;19.00;93.78;101966.56;5048753;28;20480;-68
2023/10/09 10:13:03;;;;;;;33.83;20.60;;;;;;;19.05;93.86;101954.09;5048525;28;20111;-68
2023/10/09 10:15:57;;;;;;;38.42;20.75;;;;;;;19.14;94.76;101970.84;5046284;28;20052;-69
2023/10/09 10:18:23;;;;;;;33.47;19.35;;;;;;;19.21;93.49;101961.88;5028607;28;20042;-67
2023/10/09 10:21:08;;;;;;;30.80;20.67;;;;;;;19.32;94.30;101956.22;5028637;28;20083;-69
2023/10/09 10:23:37;;;;;;;33.08;20.35;;;;;;;19.37;93.01;101951.16;5029171;28;20386;-67
2023/10/09 10:26:25;;;;;;;39.50;20.65;;;;;;;19.47;93.37;101956.69;5028496;28;20091;-67
2023/10/09 10:29:33;;;;;;;37.58;21.65;;;;;;;19.49;92.82;101960.19;5029715;28;20057;-68
2023/10/09 10:32:12;;;;;;;39.15;20.85;;;;;;;19.46;90.75;101960.47;5033819;28;20060;-68
2023/10/09 10:34:46;;;;;;;30.77;19.92;;;;;;;19.55;92.64;101959.63;5029017;28;20473;-67
2023/10/09 10:37:13;;;;;;;33.92;20.60;;;;;;;19.67;90.01;101970.56;5028377;28;20049;-68
2023/10/09 10:39:50;;;;;;;33.67;21.15;;;;;;;19.72;91.39;101957.19;5029099;28;20021;-67
2023/10/09 10:42:33;;;;;;;36.58;20.30;;;;;;;19.88;92.39;101955.63;5028267;28;20037;-68
2023/10/09 10:45:02;;;;;;;35.75;21.17;;;;;;;20.02;91.13;101943.25;5028486;28;20080;-69
2023/10/09 10:47:34;;;;;;;35.08;21.50;;;;;;;20.03;89.06;101942.25;5036681;28;20040;-67
2023/10/09 10:50:34;;;;;;;37.72;21.27;;;;;;;20.08;89.64;101944.56;5045139;28;20041;-67
2023/10/09 10:52:57;;;;;;;36.83;22.13;;;;;;;20.19;89.89;101943.53;5028263;28;20072;-68
2023/10/09 10:58:13;;;;;;;42.22;20.17;;;;;;;20.29;90.00;101945.28;5031514;28;20227;-70
2023/10/09 11:03:29;;;;;;;34.72;19.70;;;;;;;20.43;89.76;101955.00;5031947;28;20034;-68
2023/10/09 11:05:55;;;;;;;36.25;18.88;;;;;;;20.46;88.60;101956.59;5031936;28;20064;-67
2023/10/09 11:08:31;;;;;;;35.05;19.90;;;;;;;20.46;89.12;101959.34;5031691;28;20120;-68
2023/10/09 11:11:15;;;;;;;34.38;19.60;;;;;;;20.51;89.00;101962.56;5032001;28;20041;-68
2023/10/09 11:13:53;;;;;;;31.08;19.48;;;;;;;20.47;87.34;101956.50;5031869;28;20044;-68
2023/10/09 11:16:39;;;;;;;30.92;18.75;;;;;;;20.50;86.94;101958.94;5036564;28;20044;-68
2023/10/09 11:19:13;;;;;;;29.20;17.88;;;;;;;20.70;88.33;101956.13;5051499;28;20061;-67
2023/10/09 11:21:42;;;;;;;28.27;16.73;;;;;;;20.76;85.83;101955.53;5051928;28;20037;-68
2023/10/09 11:24:24;;;;;;;26.05;15.93;;;;;;;20.90;87.48;101955.06;5037483;28;20033;-68
2023/10/09 11:26:55;;;;;;;26.50;15.17;;;;;;;21.06;86.94;101948.88;5029899;28;20049;-68
2023/10/09 11:29:28;;;;;;;30.58;15.57;;;;;;;21.11;84.64;101952.03;5031407;28;20142;-67
2023/10/09 11:32:00;;;;;;;24.75;13.75;;;;;;;21.11;83.94;101946.50;5033041;28;20037;-68
2023/10/09 11:34:31;;;;;;;25.15;13.93;;;;;;;21.03;82.96;101943.63;5031371;28;20064;-67
2023/10/09 11:37:02;;;;;;;26.75;13.93;;;;;;;21.12;83.44;101945.47;5048500;28;20051;-67
2023/10/09 11:39:34;;;;;;;26.40;14.88;;;;;;;21.07;82.50;101950.59;5050865;28;20132;-68
2023/10/09 11:42:06;;;;;;;24.45;12.65;;;;;;;21.20;85.21;101942.81;5032720;28;20049;-67
2023/10/09 11:44:45;;;;;;;26.85;13.73;;;;;;;21.29;83.40;101949.31;5029883;28;20310;-67
2023/10/09 11:47:23;;;;;;;24.42;12.32;;;;;;;21.37;83.07;101949.47;5045326;28;20498;-68
2023/10/09 11:50:16;;;;;;;28.33;12.73;;;;;;;21.48;82.65;101948.38;5049331;28;20488;-68
2023/10/09 11:55:48;;;;;;;27.42;12.20;;;;;;;21.51;83.04;101948.06;5030999;28;20041;-69
2023/10/09 11:58:14;;;;;;;23.27;12.13;;;;;;;21.59;81.60;101951.81;5030716;28;20451;-68
2023/10/09 12:00:45;;;;;;;21.48;11.30;;;;;;;21.68;81.54;101947.19;5030972;28;20125;-67
2023/10/09 12:03:13;;;;;;;22.35;11.45;;;;;;;21.68;80.81;101951.88;5031145;28;20042;-68
2023/10/09 12:05:42;;;;;;;23.60;11.07;;;;;;;21.68;78.53;101952.75;5031120;28;20041;-68
2023/10/09 12:08:08;;;;;;;19.58;10.80;;;;;;;21.59;78.94;101950.91;5030124;28;20509;-69
2023/10/09 12:10:38;;;;;;;18.33;10.43;;;;;;;21.53;80.88;101946.00;5030721;28;20048;-68
2023/10/09 12:13:04;;;;;;;18.98;9.90;;;;;;;21.46;78.82;101939.38;5028760;28;20397;-67
2023/10/09 12:15:37;;;;;;;21.42;8.90;;;;;;;21.53;79.72;101946.88;5030434;28;20040;-68
2023/10/09 12:18:06;;;;;;;19.67;9.18;;;;;;;21.44;77.94;101942.28;5048085;28;20029;-68
2023/10/09 12:20:32;;;;;;;16.30;8.55;;;;;;;21.43;79.96;101946.06;5046721;28;20064;-68
2023/10/09 12:23:04;;;;;;;15.85;8.52;;;;;;;21.41;78.54;101944.50;5030124;28;20033;-68
2023/10/09 12:25:31;;;;;;;13.43;7.50;;;;;;;21.42;80.50;101946.25;5045856;28;20056;-68
2023/10/09 12:28:01;;;;;;;16.88;8.05;;;;;;;21.45;81.79;101934.81;5029894;28;20458;-68
2023/10/09 12:30:28;;;;;;;18.50;7.97;;;;;;;21.47;82.04;101936.44;5029977;28;20049;-68
2023/10/09 12:32:57;;;;;;;17.10;8.32;;;;;;;21.51;82.09;101937.88;5030272;28;20055;-68
2023/10/09 12:35:24;;;;;;;14.80;7.88;;;;;;;21.57;80.86;101933.59;5030262;28;20037;-68
2023/10/09 12:37:56;;;;;;;17.48;7.90;;;;;;;21.61;81.23;101922.03;5029850;28;20040;-68
2023/10/09 12:40:28;;;;;;;13.05;6.60;;;;;;;21.67;79.73;101923.31;5030304;28;20041;-67
2023/10/09 12:42:55;;;;;;;17.83;7.53;;;;;;;21.75;79.15;101922.53;5029959;28;20037;-69
2023/10/09 12:45:27;;;;;;;14.95;7.13;;;;;;;21.80;82.53;101923.78;5029826;28;20041;-68
2023/10/09 12:47:56;;;;;;;12.40;7.38;;;;;;;21.88;79.93;101911.94;5029923;28;20075;-68
2023/10/09 12:50:27;;;;;;;14.23;7.30;;;;;;;21.91;79.35;101919.91;5029964;28;20059;-67
2023/10/09 12:53:02;;;;;;;13.50;7.03;;;;;;;21.98;80.16;101898.00;5029553;28;20110;-67
2023/10/09 12:55:31;;;;;;;16.00;6.70;;;;;;;22.06;79.67;101898.94;5029921;28;20779;-69
2023/10/09 12:58:06;;;;;;;14.77;6.60;;;;;;;22.00;76.08;101894.00;5040165;28;20048;-68
2023/10/09 13:00:32;;;;;;;15.70;7.30;;;;;;;22.06;77.32;101895.28;5047507;28;20428;-68
2023/10/09 13:03:01;;;;;;;17.45;6.60;;;;;;;22.08;76.72;101896.00;5029692;28;20045;-68
2023/10/09 13:05:27;;;;;;;11.52;6.07;;;;;;;22.19;79.79;101892.97;5029729;28;20037;-68
2023/10/09 13:07:53;;;;;;;15.50;6.43;;;;;;;22.25;77.35;101892.34;5029448;28;20037;-68
2023/10/09 13:10:19;;;;;;;13.85;6.43;;;;;;;22.25;77.68;101891.47;5029566;28;20045;-69
2023/10/09 13:12:45;;;;;;;15.25;6.72;;;;;;;22.16;76.50;101887.78;5048679;28;20400;-68
2023/10/09 13:15:11;;;;;;;14.45;6.53;;;;;;;22.10;77.78;101888.38;5048545;28;20041;-68
2023/10/09 13:17:37;;;;;;;16.63;6.97;;;;;;;22.11;76.93;101890.13;5029933;28;20033;-68
2023/10/09 13:20:12;;;;;;;14.90;7.15;;;;;;;22.05;75.84;101888.84;5029461;28;20457;-68
2023/10/09 13:22:38;;;;;;;13.25;6.85;;;;;;;22.08;77.44;101896.00;5029288;28;20124;-67
2023/10/09 13:25:05;;;;;;;15.60;6.80;;;;;;;22.00;76.57;101902.31;5029335;28;20029;-67
2023/10/09 13:27:34;;;;;;;11.32;5.90;;;;;;;22.00;78.81;101901.44;5028920;28;20401;-68
2023/10/09 13:30:05;;;;;;;14.15;6.93;;;;;;;21.97;77.11;101907.34;5035494;28;20132;-67
2023/10/09 13:32:35;;;;;;;11.80;6.95;;;;;;;21.89;76.44;101906.22;5047724;28;20441;-68
2023/10/09 13:35:05;;;;;;;14.48;6.55;;;;;;;21.88;76.87;101914.69;5049237;28;20473;-67